Time;durP1;ratioP1;P1;durP2;ratioP2;P2;SDS_P1;SDS_P2;PMS_P1;PMS_P2;Temp;Humidity;BMP_temperature;BMP_pressure;BME280_temperature;BME280_humidity;BME280_pressure;Samples;Min_cycle;Max_cycle;Signal;HPM_P1;HPM_P2
2022/11/07 00:00:57;;;;;;;;;;;;;;;21.39;58.37;100615.09;5070387;28;2352;-61
2022/11/07 00:03:23;;;;;;;;;;;;;;;21.37;58.39;100617.91;5070154;28;1802;-61
2022/11/07 00:05:49;;;;;;;;;;;;;;;21.36;58.71;100617.16;5069649;28;1601;-62
2022/11/07 00:08:15;;;;;;;;;;;;;;;21.34;58.53;100609.19;5070207;28;1679;-61
2022/11/07 00:10:42;;;;;;;;;;;;;;;21.38;58.50;100613.63;5069659;28;1931;-61
2022/11/07 00:13:09;;;;;;;;;;;;;;;21.34;58.59;100597.66;5069814;28;1796;-61
2022/11/07 00:15:35;;;;;;;;;;;;;;;21.36;58.36;100599.88;5071201;28;1945;-61
2022/11/07 00:18:01;;;;;;;;;;;;;;;21.33;58.37;100595.44;5068498;28;1718;-61
2022/11/07 00:20:28;;;;;;;;;;;;;;;21.34;58.45;100594.78;5063983;28;1798;-61
2022/11/07 00:22:54;;;;;;;;;;;;;;;21.32;58.34;100593.97;5067927;28;1798;-61
2022/11/07 00:25:20;;;;;;;;;;;;;;;21.32;58.56;100588.19;5068538;28;2058;-61
2022/11/07 00:27:46;;;;;;;;;;;;;;;21.33;58.55;100590.44;5065691;28;1912;-62
2022/11/07 00:30:13;;;;;;;;;;;;;;;21.36;58.48;100593.38;5068150;28;1608;-61
2022/11/07 00:32:39;;;;;;;;;;;;;;;21.32;58.50;100593.97;5067375;28;1915;-61
2022/11/07 00:35:06;;;;;;;;;;;;;;;21.32;58.47;100594.69;5067826;28;1918;-61
2022/11/07 00:37:32;;;;;;;;;;;;;;;21.30;58.56;100588.13;5065762;28;1694;-62
2022/11/07 00:39:58;;;;;;;;;;;;;;;21.28;58.33;100588.03;5067956;28;1915;-61
2022/11/07 00:42:25;;;;;;;;;;;;;;;21.32;58.39;100588.19;5074009;28;1917;-61
2022/11/07 00:44:51;;;;;;;;;;;;;;;21.31;58.14;100586.72;5070387;28;1672;-61
2022/11/07 00:47:17;;;;;;;;;;;;;;;21.30;58.22;100588.88;5073459;28;1664;-61
2022/11/07 00:49:44;;;;;;;;;;;;;;;21.31;58.02;100590.34;5076263;28;1747;-61
2022/11/07 00:52:10;;;;;;;;;;;;;;;21.32;58.36;100591.81;5077353;28;1638;-61
2022/11/07 00:54:36;;;;;;;;;;;;;;;21.31;58.35;100596.09;5077310;28;1944;-61
2022/11/07 00:57:03;;;;;;;;;;;;;;;21.32;58.18;100591.81;5079436;28;1690;-61
2022/11/07 00:59:29;;;;;;;;;;;;;;;21.31;58.32;100569.44;5083425;28;1771;-61
2022/11/07 01:01:55;;;;;;;;;;;;;;;21.30;57.99;100586.00;5083679;28;1684;-61
2022/11/07 01:07:07;;;;;;;;;;;;;;;21.27;58.34;100584.44;5085273;28;1832;-62
2022/11/07 01:09:33;;;;;;;;;;;;;;;21.26;58.40;100603.13;5077193;28;1655;-62
2022/11/07 01:12:00;;;;;;;;;;;;;;;21.26;58.24;100591.59;5071643;28;1651;-61
2022/11/07 01:14:26;;;;;;;;;;;;;;;21.25;58.38;100590.09;5074513;28;1918;-61
2022/11/07 01:16:52;;;;;;;;;;;;;;;21.28;58.17;100600.31;5083279;28;1630;-61
2022/11/07 01:19:19;;;;;;;;;;;;;;;21.29;58.33;100596.03;5081904;28;1746;-61
2022/11/07 01:21:45;;;;;;;;;;;;;;;21.28;58.15;100588.81;5077813;28;1636;-62
2022/11/07 01:24:11;;;;;;;;;;;;;;;21.25;58.38;100572.81;5075921;28;1623;-61
2022/11/07 01:26:38;;;;;;;;;;;;;;;21.27;58.40;100584.44;5072712;28;1701;-61
2022/11/07 01:29:04;;;;;;;;;;;;;;;21.27;58.07;100586.56;5074301;28;1615;-61
2022/11/07 01:31:31;;;;;;;;;;;;;;;21.22;58.45;100579.91;5066061;28;1794;-61
2022/11/07 01:33:57;;;;;;;;;;;;;;;21.20;58.23;100588.47;5068457;28;1870;-61
2022/11/07 01:36:24;;;;;;;;;;;;;;;21.20;58.49;100587.75;5068206;28;1910;-61
2022/11/07 01:38:50;;;;;;;;;;;;;;;21.19;58.18;100587.00;5071282;28;1912;-62
2022/11/07 01:41:35;;;;;;;;;;;;;;;21.20;58.46;100582.72;5072678;28;1770;-61
2022/11/07 01:44:07;;;;;;;;;;;;;;;21.20;58.40;100579.09;5066769;28;1715;-61
2022/11/07 01:46:37;;;;;;;;;;;;;;;21.17;58.17;100586.94;5067621;28;1667;-61
2022/11/07 01:49:06;;;;;;;;;;;;;;;21.16;58.42;100591.19;5073036;28;1643;-61
2022/11/07 01:51:34;;;;;;;;;;;;;;;21.19;58.34;100587.00;5074241;28;1699;-61
2022/11/07 01:54:00;;;;;;;;;;;;;;;21.17;58.22;100589.81;5076572;28;1739;-61
2022/11/07 01:56:27;;;;;;;;;;;;;;;21.17;58.27;100595.56;5074388;28;1918;-62
2022/11/07 01:58:53;;;;;;;;;;;;;;;21.15;58.09;100586.84;5076373;28;2244;-61
2022/11/07 02:01:20;;;;;;;;;;;;;;;21.19;58.37;100592.00;5075197;28;1639;-61
2022/11/07 02:03:46;;;;;;;;;;;;;;;21.17;58.24;100589.06;5072080;28;1659;-62
2022/11/07 02:06:13;;;;;;;;;;;;;;;21.17;58.19;100589.06;5074457;28;1825;-62
2022/11/07 02:08:40;;;;;;;;;;;;;;;21.16;58.17;100588.31;5069902;28;1892;-61
2022/11/07 02:11:08;;;;;;;;;;;;;;;21.15;58.22;100586.84;5073314;28;1760;-61
2022/11/07 02:13:34;;;;;;;;;;;;;;;21.15;58.24;100586.84;5075703;28;1838;-61
2022/11/07 02:16:01;;;;;;;;;;;;;;;21.13;58.18;100589.66;5066554;28;2076;-61
2022/11/07 02:18:27;;;;;;;;;;;;;;;21.13;58.25;100583.88;5065593;28;1679;-62
2022/11/07 02:20:55;;;;;;;;;;;;;;;21.13;58.57;100578.88;5071420;28;1720;-61
2022/11/07 02:23:25;;;;;;;;;;;;;;;21.13;58.52;100583.88;5071887;28;1897;-61
2022/11/07 02:25:52;;;;;;;;;;;;;;;21.12;58.20;100583.16;5065681;28;1744;-61
2022/11/07 02:28:18;;;;;;;;;;;;;;;21.10;58.18;100577.31;5060076;28;1714;-61
2022/11/07 02:30:44;;;;;;;;;;;;;;;21.11;58.22;100586.69;5064589;28;1798;-61
2022/11/07 02:33:18;;;;;;;;;;;;;;;21.13;58.22;100581.75;5067283;28;1703;-61
2022/11/07 02:35:44;;;;;;;;;;;;;;;21.12;58.13;100570.91;5065199;28;1981;-61
2022/11/07 02:38:12;;;;;;;;;;;;;;;21.10;58.43;100573.69;5065959;28;1707;-61
2022/11/07 02:40:39;;;;;;;;;;;;;;;21.12;58.15;100576.66;5064579;28;2147;-61
2022/11/07 02:43:05;;;;;;;;;;;;;;;21.12;58.12;100583.16;5067564;28;1686;-61
2022/11/07 02:45:33;;;;;;;;;;;;;;;21.09;58.10;100587.34;5068703;28;1789;-61
2022/11/07 02:47:59;;;;;;;;;;;;;;;21.12;58.24;100585.31;5070504;28;1674;-61
2022/11/07 02:50:26;;;;;;;;;;;;;;;21.01;58.55;100586.31;5067128;28;1725;-61
2022/11/07 02:52:52;;;;;;;;;;;;;;;21.04;58.57;100576.34;5063776;28;1739;-61
2022/11/07 02:55:18;;;;;;;;;;;;;;;21.07;58.29;100580.75;5064613;28;1972;-61
2022/11/07 02:57:45;;;;;;;;;;;;;;;21.05;58.48;100580.69;5066870;28;1647;-61
2022/11/07 03:00:11;;;;;;;;;;;;;;;21.06;58.39;100582.19;5063212;28;1711;-62
2022/11/07 03:02:38;;;;;;;;;;;;;;;21.05;58.19;100580.69;5067953;28;2166;-61
2022/11/07 03:05:05;;;;;;;;;;;;;;;21.05;58.39;100583.56;5062373;28;1634;-61
2022/11/07 03:07:31;;;;;;;;;;;;;;;21.09;58.06;100584.47;5065325;28;1782;-61
2022/11/07 03:09:57;;;;;;;;;;;;;;;21.10;58.18;100590.97;5065250;28;1736;-61
2022/11/07 03:12:23;;;;;;;;;;;;;;;21.06;58.15;100600.19;5065164;28;2448;-61
2022/11/07 03:14:50;;;;;;;;;;;;;;;21.05;58.05;100600.84;5063155;28;1947;-61
2022/11/07 03:17:16;;;;;;;;;;;;;;;21.05;58.47;100600.84;5062642;28;1646;-61
2022/11/07 03:19:43;;;;;;;;;;;;;;;21.06;58.28;100613.84;5066379;28;1770;-61
2022/11/07 03:22:09;;;;;;;;;;;;;;;21.07;58.06;100618.19;5062688;28;1909;-62
2022/11/07 03:24:35;;;;;;;;;;;;;;;21.06;58.03;100620.34;5066495;28;1822;-61
2022/11/07 03:27:02;;;;;;;;;;;;;;;21.03;58.11;100618.78;5064690;28;1702;-61
2022/11/07 03:29:28;;;;;;;;;;;;;;;21.04;58.33;100622.41;5064688;28;1620;-61
2022/11/07 03:31:54;;;;;;;;;;;;;;;21.03;58.13;100627.41;5068321;28;1749;-61
2022/11/07 03:34:20;;;;;;;;;;;;;;;21.03;58.23;100632.44;5067727;28;1921;-61
2022/11/07 03:36:47;;;;;;;;;;;;;;;21.03;57.87;100632.44;5066222;28;1913;-61
2022/11/07 03:39:13;;;;;;;;;;;;;;;21.01;58.12;100629.47;5066375;28;1646;-61
2022/11/07 03:41:39;;;;;;;;;;;;;;;21.01;58.10;100635.25;5066254;28;1873;-61
2022/11/07 03:44:06;;;;;;;;;;;;;;;21.05;58.26;100629.63;5068558;28;1683;-61
2022/11/07 03:46:32;;;;;;;;;;;;;;;21.05;57.95;100630.38;5070322;28;1913;-61
2022/11/07 03:48:58;;;;;;;;;;;;;;;21.06;57.94;100634.00;5075645;28;1774;-61
2022/11/07 03:51:25;;;;;;;;;;;;;;;21.06;58.13;100628.25;5074417;28;1825;-61
2022/11/07 03:53:51;;;;;;;;;;;;;;;21.07;58.11;100632.59;5075157;28;1766;-61
2022/11/07 03:56:17;;;;;;;;;;;;;;;21.09;57.74;100629.78;5073653;28;1895;-61
2022/11/07 03:58:44;;;;;;;;;;;;;;;21.10;57.87;100631.28;5071419;28;1670;-62
2022/11/07 04:01:12;;;;;;;;;;;;;;;21.12;57.96;100637.13;5070621;28;1857;-61
2022/11/07 04:03:38;;;;;;;;;;;;;;;21.13;57.66;100630.69;5079036;28;1715;-62
2022/11/07 04:06:04;;;;;;;;;;;;;;;21.13;57.81;100630.69;5076041;28;1682;-61
2022/11/07 04:08:31;;;;;;;;;;;;;;;21.16;57.92;100634.38;5073571;28;1698;-61
2022/11/07 04:10:57;;;;;;;;;;;;;;;21.16;57.94;100633.66;5081409;28;1985;-61
2022/11/07 04:18:56;;;;;;;;;;;;;;;21.16;57.96;100645.91;5074637;28;1790;-61
2022/11/07 04:21:23;;;;;;;;;;;;;;;21.16;57.95;100643.03;5077695;28;1822;-61
2022/11/07 04:23:49;;;;;;;;;;;;;;;21.15;58.12;100644.44;5071740;28;1785;-61
2022/11/07 04:29:00;;;;;;;;;;;;;;;21.16;57.90;100654.53;5081872;28;1647;-61
2022/11/07 04:31:27;;;;;;;;;;;;;;;21.17;58.06;100652.41;5079012;28;1603;-61
2022/11/07 04:33:53;;;;;;;;;;;;;;;21.16;57.91;100656.69;5072952;28;1956;-62
2022/11/07 04:36:19;;;;;;;;;;;;;;;21.16;57.76;100657.41;5076696;28;1969;-61
2022/11/07 04:38:46;;;;;;;;;;;;;;;21.16;57.74;100656.69;5072405;28;1810;-61
2022/11/07 04:41:16;;;;;;;;;;;;;;;21.13;57.92;100670.25;5074902;28;1718;-61
2022/11/07 04:43:43;;;;;;;;;;;;;;;21.14;57.89;100660.22;5078097;28;1717;-61
2022/11/07 04:46:09;;;;;;;;;;;;;;;21.12;57.83;100677.44;5072483;28;1665;-61
2022/11/07 04:48:35;;;;;;;;;;;;;;;21.13;58.07;100670.25;5078364;28;1913;-61
2022/11/07 04:51:02;;;;;;;;;;;;;;;21.09;58.15;100675.84;5066636;28;1749;-61
2022/11/07 04:53:28;;;;;;;;;;;;;;;21.10;57.86;100675.19;5064811;28;1866;-61
2022/11/07 04:55:54;;;;;;;;;;;;;;;21.11;58.28;100684.56;5070457;28;1965;-61
2022/11/07 04:58:21;;;;;;;;;;;;;;;21.11;58.17;100681.69;5069146;28;1672;-61
2022/11/07 05:00:47;;;;;;;;;;;;;;;21.10;57.87;100688.88;5067336;28;1958;-61
2022/11/07 05:03:13;;;;;;;;;;;;;;;21.11;57.88;100684.56;5069479;28;1716;-61
2022/11/07 05:05:40;;;;;;;;;;;;;;;21.10;57.75;100688.88;5066761;28;1877;-61
2022/11/07 05:08:07;;;;;;;;;;;;;;;21.10;57.73;100683.09;5063926;28;1826;-61
2022/11/07 05:10:33;;;;;;;;;;;;;;;21.12;58.05;100683.19;5067461;28;1727;-61
2022/11/07 05:12:59;;;;;;;;;;;;;;;21.14;57.76;100683.25;5066267;28;1941;-61
2022/11/07 05:15:26;;;;;;;;;;;;;;;21.15;57.90;100684.75;5066225;28;1967;-62
2022/11/07 05:17:52;;;;;;;;;;;;;;;21.17;57.87;100675.47;5063643;28;1615;-61
2022/11/07 05:20:31;;;;;;;;;;;;;;;21.16;57.72;100677.56;5063996;28;1651;-61
2022/11/07 05:23:17;;;;;;;;;;;;;;;21.17;57.83;100675.47;5065296;28;1723;-61
2022/11/07 05:25:45;;;;;;;;;;;;;;;21.17;57.94;100681.94;5064434;28;1760;-61
2022/11/07 05:28:12;;;;;;;;;;;;;;;21.20;57.76;100686.38;5068102;28;1656;-61
2022/11/07 05:30:39;;;;;;;;;;;;;;;21.20;57.57;100685.66;5063476;28;1667;-61
2022/11/07 05:33:09;;;;;;;;;;;;;;;21.20;57.91;100700.78;5064535;28;2374;-62
2022/11/07 05:35:35;;;;;;;;;;;;;;;21.21;57.97;100695.75;5070250;28;2688;-61
2022/11/07 05:38:01;;;;;;;;;;;;;;;21.21;57.76;100693.63;5071186;28;2742;-61
2022/11/07 05:40:28;;;;;;;;;;;;;;;21.21;57.75;100695.75;5075351;28;2296;-61
2022/11/07 05:42:57;;;;;;;;;;;;;;;21.19;57.81;100699.31;5064524;28;2380;-61
2022/11/07 05:45:24;;;;;;;;;;;;;;;21.20;57.82;100703.66;5076785;28;1650;-61
2022/11/07 05:47:55;;;;;;;;;;;;;;;21.20;58.17;100697.16;5075792;28;1794;-61
2022/11/07 05:50:21;;;;;;;;;;;;;;;21.20;57.94;100708.69;5074243;28;1726;-61
2022/11/07 05:52:48;;;;;;;;;;;;;;;21.22;58.15;100700.88;5075117;28;1853;-62
2022/11/07 05:55:14;;;;;;;;;;;;;;;21.23;58.36;100708.09;5069655;28;1979;-62
2022/11/07 05:57:40;;;;;;;;;;;;;;;21.23;58.42;100702.34;5065951;28;1993;-62
2022/11/07 06:00:07;;;;;;;;;;;;;;;21.23;58.34;100705.22;5067970;28;1660;-61
2022/11/07 06:02:37;;;;;;;;;;;;;;;21.25;58.64;100713.94;5065069;28;1584;-61
2022/11/07 06:05:03;;;;;;;;;;;;;;;21.24;58.66;100720.38;5063952;28;1734;-60
2022/11/07 06:07:33;;;;;;;;;;;;;;;21.28;58.84;100718.41;5067403;28;1672;-61
2022/11/07 06:09:59;;;;;;;;;;;;;;;21.27;58.79;100714.03;5068432;28;1536;-61
2022/11/07 06:12:26;;;;;;;;;;;;;;;21.26;59.14;100718.31;5063662;28;1746;-61
2022/11/07 06:14:52;;;;;;;;;;;;;;;21.28;58.60;100721.28;5066329;28;1676;-62
2022/11/07 06:17:18;;;;;;;;;;;;;;;21.25;58.78;100713.19;5062569;28;1915;-61
2022/11/07 06:19:45;;;;;;;;;;;;;;;21.26;58.72;100724.06;5064918;28;1608;-61
2022/11/07 06:22:11;;;;;;;;;;;;;;;21.25;59.01;100728.34;5064235;28;1600;-61
2022/11/07 06:24:37;;;;;;;;;;;;;;;21.29;59.13;100722.00;5063032;28;1664;-60
2022/11/07 06:27:04;;;;;;;;;;;;;;;21.29;59.20;100727.78;5066734;28;1656;-60
2022/11/07 06:29:30;;;;;;;;;;;;;;;21.30;59.30;100740.75;5068945;28;1862;-61
2022/11/07 06:31:56;;;;;;;;;;;;;;;21.29;59.11;100734.28;5075133;28;2045;-60
2022/11/07 06:34:23;;;;;;;;;;;;;;;21.29;59.21;100734.28;5078155;28;1580;-58
2022/11/07 06:36:52;;;;;;;;;;;;;;;21.29;59.06;100731.38;5070579;28;1918;-61
2022/11/07 06:39:28;;;;;;;;;;;;;;;21.31;59.27;100742.25;5064366;28;1659;-61
2022/11/07 06:41:54;;;;;;;;;;;;;;;21.31;59.02;100736.50;5069438;28;2809;-60
2022/11/07 06:44:20;;;;;;;;;;;;;;;21.42;58.81;100735.53;5067321;28;2878;-58
2022/11/07 06:46:47;;;;;;;;;;;;;;;21.30;59.14;100738.63;5068777;28;1675;-60
2022/11/07 06:49:14;;;;;;;;;;;;;;;21.29;59.35;100737.16;5069582;28;1620;-60
2022/11/07 06:51:40;;;;;;;;;;;;;;;21.29;59.05;100734.28;5078144;28;1581;-60
2022/11/07 06:54:12;;;;;;;;;;;;;;;21.29;59.44;100733.53;5070116;28;1686;-60
2022/11/07 06:56:39;;;;;;;;;;;;;;;21.29;59.09;100734.28;5067652;28;1965;-60
2022/11/07 06:59:05;;;;;;;;;;;;;;;21.30;59.00;100743.63;5065445;28;3397;-60
2022/11/07 07:01:32;;;;;;;;;;;;;;;21.29;59.34;100737.16;5071617;28;2287;-60
2022/11/07 07:03:59;;;;;;;;;;;;;;;21.30;59.15;100740.75;5076007;28;2304;-60
2022/11/07 07:06:25;;;;;;;;;;;;;;;21.33;59.29;100740.19;5075428;28;1642;-60
2022/11/07 07:08:52;;;;;;;;;;;;;;;21.33;59.03;100754.59;5074626;28;1790;-60
2022/11/07 07:11:18;;;;;;;;;;;;;;;21.33;58.99;100754.59;5074858;28;1592;-60
2022/11/07 07:13:44;;;;;;;;;;;;;;;21.34;59.02;100753.19;5068467;28;1778;-60
2022/11/07 07:16:11;;;;;;;;;;;;;;;21.32;59.24;100761.75;5072585;28;1969;-60
2022/11/07 07:18:38;;;;;;;;;;;;;;;21.34;59.15;100761.09;5075511;28;1591;-60
2022/11/07 07:21:11;;;;;;;;;;;;;;;21.33;59.03;100754.59;5074159;28;1560;-60
2022/11/07 07:23:37;;;;;;;;;;;;;;;21.34;59.14;100756.06;5068231;28;1809;-60
2022/11/07 07:26:04;;;;;;;;;;;;;;;21.33;58.89;100756.75;5070259;28;1850;-60
2022/11/07 07:28:30;;;;;;;;;;;;;;;21.30;59.22;100764.56;5064254;28;1587;-60
2022/11/07 07:31:11;;;;;;;;;;;;;;;21.27;59.13;100765.13;5071020;28;1983;-60
2022/11/07 07:33:38;;;;;;;;;;;;;;;21.25;58.99;100767.91;5067761;28;1585;-60
2022/11/07 07:36:04;;;;;;;;;;;;;;;21.27;59.29;100759.38;5066431;28;1946;-60
2022/11/07 07:38:31;;;;;;;;;;;;;;;21.31;58.88;100766.03;5063594;28;1690;-60
2022/11/07 07:40:57;;;;;;;;;;;;;;;21.32;59.01;100761.75;5063401;28;2159;-60
2022/11/07 07:43:24;;;;;;;;;;;;;;;21.36;59.06;100766.19;5065513;28;1682;-60
2022/11/07 07:45:50;;;;;;;;;;;;;;;21.36;58.96;100758.31;5065108;28;1794;-60
2022/11/07 07:48:17;;;;;;;;;;;;;;;21.37;58.85;100759.03;5058935;28;1655;-60
2022/11/07 07:50:43;;;;;;;;;;;;;;;21.37;58.99;100745.38;5061322;28;1657;-60
2022/11/07 07:53:09;;;;;;;;;;;;;;;21.37;58.74;100753.28;5064557;28;1671;-60
2022/11/07 07:55:36;;;;;;;;;;;;;;;21.36;58.93;100754.69;5065094;28;1683;-60
2022/11/07 07:58:02;;;;;;;;;;;;;;;21.34;58.94;100750.31;5073680;28;1973;-60
2022/11/07 08:00:28;;;;;;;;;;;;;;;21.34;59.00;100752.44;5074976;28;1795;-60
2022/11/07 08:03:01;;;;;;;;;;;;;;;21.34;58.75;100753.19;5078778;28;1778;-60
2022/11/07 08:05:27;;;;;;;;;;;;;;;21.37;58.68;100767.66;5066844;28;1778;-60
2022/11/07 08:07:54;;;;;;;;;;;;;;;21.38;58.93;100767.03;5079315;28;1631;-60
2022/11/07 08:10:20;;;;;;;;;;;;;;;21.37;58.91;100767.66;5069836;28;1791;-60
2022/11/07 08:13:07;;;;;;;;;;;;;;;21.37;59.00;100764.78;5070318;28;1726;-60
2022/11/07 08:15:33;;;;;;;;;;;;;;;21.38;58.69;100764.16;5065806;28;1790;-60
2022/11/07 08:18:00;;;;;;;;;;;;;;;21.38;59.04;100764.16;5076879;28;2694;-60
2022/11/07 08:20:27;;;;;;;;;;;;;;;21.40;58.95;100766.38;5067157;28;1697;-60
2022/11/07 08:23:00;;;;;;;;;;;;;;;21.41;58.90;100771.47;5074819;28;1809;-60
2022/11/07 08:25:26;;;;;;;;;;;;;;;21.41;58.77;100771.47;5070841;28;1786;-60
2022/11/07 08:27:53;;;;;;;;;;;;;;;21.41;58.78;100773.63;5080678;28;1570;-60
2022/11/07 08:30:19;;;;;;;;;;;;;;;21.42;58.59;100769.38;5079818;28;1641;-60
2022/11/07 08:32:46;;;;;;;;;;;;;;;21.42;58.87;100770.09;5079129;28;1944;-60
2022/11/07 08:35:12;;;;;;;;;;;;;;;21.40;58.77;100770.03;5071859;28;1615;-60
2022/11/07 08:37:39;;;;;;;;;;;;;;;21.41;58.70;100779.41;5068994;28;2003;-60
2022/11/07 08:40:05;;;;;;;;;;;;;;;21.42;58.68;100769.38;5077159;28;1616;-60
2022/11/07 08:42:31;;;;;;;;;;;;;;;21.42;58.62;100786.66;5074322;28;1892;-60
2022/11/07 08:44:58;;;;;;;;;;;;;;;21.41;58.55;100776.50;5077663;28;1932;-60
2022/11/07 08:47:25;;;;;;;;;;;;;;;21.41;58.77;100785.16;5078802;28;1762;-60
2022/11/07 08:49:51;;;;;;;;;;;;;;;21.41;58.79;100780.13;5068474;28;1575;-60
2022/11/07 08:52:18;;;;;;;;;;;;;;;21.41;58.69;100782.28;5074976;28;1560;-60
2022/11/07 08:54:44;;;;;;;;;;;;;;;21.41;58.69;100779.41;5067663;28;1810;-60
2022/11/07 08:57:10;;;;;;;;;;;;;;;21.41;58.44;100790.91;5073420;28;1989;-60
2022/11/07 08:59:37;;;;;;;;;;;;;;;21.39;58.73;100780.00;5067017;28;1729;-60
2022/11/07 09:02:03;;;;;;;;;;;;;;;21.42;58.67;100786.66;5066696;28;1682;-60
2022/11/07 09:04:49;;;;;;;;;;;;;;;21.40;58.82;100777.91;5072685;28;1790;-60
2022/11/07 09:07:16;;;;;;;;;;;;;;;21.43;58.52;100783.09;5077996;28;1607;-60
2022/11/07 09:09:42;;;;;;;;;;;;;;;21.42;58.72;100786.66;5070458;28;2038;-60
2022/11/07 09:12:08;;;;;;;;;;;;;;;21.41;58.68;100791.66;5073089;28;1592;-60
2022/11/07 09:14:35;;;;;;;;;;;;;;;21.41;58.40;100793.78;5073839;28;1642;-60
2022/11/07 09:17:01;;;;;;;;;;;;;;;21.41;58.26;100793.78;5075114;28;2321;-60
2022/11/07 09:19:27;;;;;;;;;;;;;;;21.42;58.55;100792.41;5077617;28;1694;-60
2022/11/07 09:21:55;;;;;;;;;;;;;;;21.41;58.36;100790.91;5065109;28;2993;-60
2022/11/07 09:24:21;;;;;;;;;;;;;;;21.42;58.42;100798.91;5060218;28;2639;-60
2022/11/07 09:26:47;;;;;;;;;;;;;;;21.43;58.47;100797.50;5061502;28;3583;-60
2022/11/07 09:29:14;;;;;;;;;;;;;;;21.42;58.36;100786.66;5076325;28;1562;-60
2022/11/07 09:31:40;;;;;;;;;;;;;;;21.41;58.47;100793.78;5077957;28;2406;-60
2022/11/07 09:34:06;;;;;;;;;;;;;;;21.42;58.29;100793.16;5070671;28;1664;-60
2022/11/07 09:36:32;;;;;;;;;;;;;;;21.41;58.28;100799.56;5075175;28;1910;-60
2022/11/07 09:38:59;;;;;;;;;;;;;;;21.40;58.37;100798.06;5076118;28;1634;-60
2022/11/07 09:41:34;;;;;;;;;;;;;;;21.39;58.35;100793.69;5079422;28;1727;-60
2022/11/07 09:44:03;;;;;;;;;;;;;;;21.36;58.56;100795.00;5079161;28;2239;-60
2022/11/07 09:46:42;;;;;;;;;;;;;;;21.38;58.55;100797.97;5077046;28;1681;-60
2022/11/07 09:49:14;;;;;;;;;;;;;;;21.36;58.38;100786.38;5063855;28;1625;-60
2022/11/07 09:51:45;;;;;;;;;;;;;;;21.36;58.45;100800.78;5081381;28;1734;-60
2022/11/07 09:54:16;;;;;;;;;;;;;;;21.34;58.30;100805.03;5068746;28;1750;-60
2022/11/07 09:56:42;;;;;;;;;;;;;;;21.36;58.24;100801.50;5068291;28;1967;-60
2022/11/07 09:59:15;;;;;;;;;;;;;;;21.26;58.52;100804.72;5068825;28;1756;-60
2022/11/07 10:01:41;;;;;;;;;;;;;;;21.33;58.24;100797.81;5067537;28;2712;-60
2022/11/07 10:04:10;;;;;;;;;;;;;;;21.28;58.39;100801.91;5065553;28;2382;-60
2022/11/07 10:07:00;;;;;;;;;;;;;;;21.28;58.67;100810.56;5065542;28;3396;-60
2022/11/07 10:09:30;;;;;;;;;;;;;;;21.26;58.70;100795.34;5070062;28;1664;-60
2022/11/07 10:12:03;;;;;;;;;;;;;;;21.33;58.49;100803.56;5069522;28;2279;-60
2022/11/07 10:14:33;;;;;;;;;;;;;;;21.36;58.16;100800.78;5069901;28;1593;-60
2022/11/07 10:17:16;;;;;;;;;;;;;;;21.37;58.14;100799.34;5069374;28;1918;-60
2022/11/07 10:19:46;;;;;;;;;;;;;;;21.40;58.06;100806.69;5072208;28;1650;-61
2022/11/07 10:22:12;;;;;;;;;;;;;;;21.40;58.27;100807.47;5073040;28;1573;-60
2022/11/07 10:24:45;;;;;;;;;;;;;;;21.39;58.36;100805.94;5068165;28;2312;-60
2022/11/07 10:27:11;;;;;;;;;;;;;;;21.41;58.00;100808.19;5071537;28;1690;-60
2022/11/07 10:29:43;;;;;;;;;;;;;;;21.41;58.16;100811.09;5073361;28;1684;-60
2022/11/07 10:32:26;;;;;;;;;;;;;;;21.41;58.46;100808.19;5067941;28;1612;-60
2022/11/07 10:34:55;;;;;;;;;;;;;;;21.42;58.21;100809.69;5074290;28;1716;-60
2022/11/07 10:37:22;;;;;;;;;;;;;;;21.42;58.27;100803.94;5071045;28;1914;-60
2022/11/07 10:39:48;;;;;;;;;;;;;;;21.42;58.10;100803.94;5071074;28;1794;-60
2022/11/07 10:42:15;;;;;;;;;;;;;;;21.44;57.96;100806.88;5073186;28;1672;-60
2022/11/07 10:44:42;;;;;;;;;;;;;;;21.43;58.05;100799.66;5072523;28;1781;-60
2022/11/07 10:47:18;;;;;;;;;;;;;;;21.41;58.13;100794.53;5073418;28;1655;-60
2022/11/07 10:49:55;;;;;;;;;;;;;;;21.40;58.26;100806.69;5074146;28;1567;-60
2022/11/07 10:52:21;;;;;;;;;;;;;;;21.40;58.17;100801.72;5076816;28;1775;-60
2022/11/07 10:54:47;;;;;;;;;;;;;;;21.42;58.04;100798.91;5072720;28;1675;-60
2022/11/07 10:57:18;;;;;;;;;;;;;;;21.41;58.19;100797.41;5076791;28;2412;-60
2022/11/07 10:59:45;;;;;;;;;;;;;;;21.41;58.08;100793.78;5079468;28;1649;-60
2022/11/07 11:02:16;;;;;;;;;;;;;;;21.43;58.27;100788.13;5078843;28;1584;-60
2022/11/07 11:04:46;;;;;;;;;;;;;;;21.42;57.88;100789.53;5077315;28;1643;-60
2022/11/07 11:07:16;;;;;;;;;;;;;;;21.41;58.23;100783.00;5079454;28;1620;-60
2022/11/07 11:09:49;;;;;;;;;;;;;;;21.42;58.33;100792.41;5079310;28;1806;-60
2022/11/07 11:12:15;;;;;;;;;;;;;;;21.41;58.13;100788.03;5079949;28;1669;-60
2022/11/07 11:14:41;;;;;;;;;;;;;;;21.42;58.21;100792.41;5067814;28;1591;-60
2022/11/07 11:17:19;;;;;;;;;;;;;;;21.40;58.35;100784.41;5071143;28;1918;-60
2022/11/07 11:19:53;;;;;;;;;;;;;;;21.40;58.19;100789.41;5073193;28;1900;-60
2022/11/07 11:22:22;;;;;;;;;;;;;;;21.41;58.17;100790.91;5059967;28;2964;-62
2022/11/07 11:25:02;;;;;;;;;;;;;;;21.33;58.11;100789.16;5062199;28;2930;-63
2022/11/07 11:27:29;;;;;;;;;;;;;;;21.33;58.41;100780.53;5046467;28;1718;-63
2022/11/07 11:30:06;;;;;;;;;;;;;;;21.40;58.12;100787.31;5064093;28;2981;-65
2022/11/07 11:32:37;;;;;;;;;;;;;;;21.40;58.34;100789.41;5065044;28;1806;-62
2022/11/07 11:35:12;;;;;;;;;;;;;;;21.42;58.00;100792.41;5064383;28;1748;-63
2022/11/07 11:37:40;;;;;;;;;;;;;;;21.43;58.03;100793.88;5070853;28;1910;-63
2022/11/07 11:40:07;;;;;;;;;;;;;;;21.42;58.00;100792.41;5074363;28;1587;-64
2022/11/07 11:42:47;;;;;;;;;;;;;;;21.45;58.10;100785.31;5078304;28;2812;-62
2022/11/07 11:45:18;;;;;;;;;;;;;;;21.46;58.19;100792.56;5070717;28;1707;-62
2022/11/07 11:47:46;;;;;;;;;;;;;;;21.46;58.27;100790.44;5076597;28;1782;-62
2022/11/07 11:50:15;;;;;;;;;;;;;;;21.47;58.16;100789.03;5066553;28;1699;-63
2022/11/07 11:52:41;;;;;;;;;;;;;;;21.49;58.28;100779.75;5073866;28;1539;-63
2022/11/07 11:55:14;;;;;;;;;;;;;;;21.46;58.09;100775.28;5076491;28;1683;-62
2022/11/07 11:57:45;;;;;;;;;;;;;;;21.46;58.10;100775.28;5078992;28;1964;-63
2022/11/07 12:00:11;;;;;;;;;;;;;;;21.46;58.23;100781.03;5077770;28;1631;-63
2022/11/07 12:02:41;;;;;;;;;;;;;;;21.42;58.18;100781.63;5078800;28;1853;-63
2022/11/07 12:05:20;;;;;;;;;;;;;;;21.43;58.20;100776.59;5079969;28;1643;-62
2022/11/07 12:07:49;;;;;;;;;;;;;;;21.44;58.07;100772.31;5073525;28;1746;-63
2022/11/07 12:10:27;;;;;;;;;;;;;;;21.44;58.10;100770.19;5069035;28;1638;-63
2022/11/07 12:13:08;;;;;;;;;;;;;;;21.42;58.34;100775.13;5074486;28;1618;-63
2022/11/07 12:15:43;;;;;;;;;;;;;;;21.39;58.06;100768.50;5066231;28;1728;-62
2022/11/07 12:18:13;;;;;;;;;;;;;;;21.39;58.15;100776.41;5067713;28;1965;-62
2022/11/07 12:20:44;;;;;;;;;;;;;;;21.40;58.11;100772.91;5069781;28;1837;-62
2022/11/07 12:23:33;;;;;;;;;;;;;;;21.40;58.07;100778.66;5076662;28;1836;-62
2022/11/07 12:26:10;;;;;;;;;;;;;;;21.41;58.07;100776.50;5069502;28;1583;-63
2022/11/07 12:28:43;;;;;;;;;;;;;;;21.39;58.32;100780.00;5067627;28;1723;-63
2022/11/07 12:31:13;;;;;;;;;;;;;;;21.40;58.09;100778.66;5064005;28;1672;-63
2022/11/07 12:33:58;;;;;;;;;;;;;;;21.39;58.22;100776.41;5069909;28;1625;-63
2022/11/07 12:36:32;;;;;;;;;;;;;;;21.38;58.33;100780.69;5072403;28;1647;-62
2022/11/07 12:39:17;;;;;;;;;;;;;;;21.37;58.13;100779.19;5077023;28;1967;-63
2022/11/07 12:41:47;;;;;;;;;;;;;;;21.36;58.35;100783.50;5078911;28;1656;-63
2022/11/07 12:44:19;;;;;;;;;;;;;;;21.34;58.15;100782.00;5075024;28;1666;-62
2022/11/07 12:46:50;;;;;;;;;;;;;;;21.33;58.32;100782.66;5076444;28;1663;-63
2022/11/07 12:49:21;;;;;;;;;;;;;;;21.33;58.22;100792.03;5079289;28;1634;-63
2022/11/07 12:51:53;;;;;;;;;;;;;;;21.34;58.40;100789.91;5073474;28;1548;-63
2022/11/07 12:54:30;;;;;;;;;;;;;;;21.31;58.30;100777.56;5070050;28;1599;-62
2022/11/07 12:56:56;;;;;;;;;;;;;;;21.33;58.29;100780.53;5071011;28;1774;-62
2022/11/07 12:59:24;;;;;;;;;;;;;;;21.33;58.38;100786.28;5067227;28;1909;-62
2022/11/07 13:01:54;;;;;;;;;;;;;;;21.30;58.49;100781.84;5073778;28;2327;-63
2022/11/07 13:04:23;;;;;;;;;;;;;;;21.31;58.15;100783.31;5062780;28;1770;-62